RAAF Base Amberley
YAMB : now visible

Airfield :











YOU CAN JOIN US ON...

 
LOGIN :

Register | Disclaimer

   EN    FR    IT 

 









Legend :    VFR   Marginal VFR   IFR   Intensive IFR   Very Intensive IFR
Visi :
Ceiling :
>= 8 km
>= 3000ft
5 to 8 km
1000 to 3000 ft
1500m to 5 km
500 to 1000 ft
800 to 1500m
200 to 500 ft
< 800m
< 200 ft
Symbols :   Thunderstorms  Fog  Heavy snow  Heavy precipitations  Wind > 20 kt






- Airport Elevation : 91 ft


YAMB - RAAF Base Amberley

CURRENT METAR :
  • 200730Z AUTO 13011KT 9999 RA SCT015 BKN028 BKN056 23/20 Q1016

EXPIRED METARs :
  • 200716Z AUTO 15009KT 6000 RA SCT015 BKN024 BKN030 23/21 Q1016
  • 200700Z AUTO 12010KT 9999 // BKN027 BKN040 BKN056 25/20 Q1016
  • 200630Z AUTO 13010KT 9999 // BKN022 OVC094 25/20 Q1016
  • 200600Z 10007KT 9999 -SHRA SCT024 BKN099 25/21 Q1016
  • 200530Z 13011KT 9999 VCSH FEW010 SCT021 BKN030 25/21 Q1016
  • 200500Z 16008KT 9999 VCSH SCT025 BKN034 25/21 Q1015

TAF TAF YAMB
Valid from the 20 at 05:00 until the 21 at 00:00 UTC


200443Z 2005/2100 16013KT 9999 -SHRA SCT025 BKN050
FM200900 18010KT 9999 NSW SCT025
YBBB FIR / Oceania



MET'MAP, your aeronautical weather chart ! - Copyright ORBIFLY December 2007 - Disclaimer

ORBIFLY MET'MAP TEAM :

Programming & Development : Alexandra Zaïnal
Concept & original design : Baudouin d'Aumeries
Assistance for programming : Marc-Olivier Méhu
Technical & hardware support : Manuel Goepfert

Contact : metmap@orbifly.com




SOURCES & CREDITS :

   NOAA       Earth
Advisory